createdAt,value
2023-02-23T00:04:48.132Z,2.42
2023-02-23T00:09:50.919Z,1.75
2023-02-23T00:14:52.552Z,1.63
2023-02-23T00:19:55.286Z,2.72
2023-02-23T00:24:57.520Z,3.22
2023-02-23T00:29:59.329Z,2.50
2023-02-23T00:35:01.158Z,2.38
2023-02-23T00:40:07.796Z,2.97
2023-02-23T00:45:12.262Z,2.13
2023-02-23T00:50:16.252Z,1.45
2023-02-23T00:55:17.961Z,2.75
2023-02-23T01:00:20.816Z,1.20
2023-02-23T01:05:22.883Z,1.05
2023-02-23T01:10:24.513Z,1.90
2023-02-23T01:15:27.706Z,2.13
2023-02-23T01:20:29.772Z,2.28
2023-02-23T01:25:33.084Z,1.95
2023-02-23T01:30:35.256Z,1.92
2023-02-23T01:35:36.858Z,1.52
2023-02-23T01:40:39.366Z,1.15
2023-02-23T01:45:43.386Z,2.88
2023-02-23T01:51:03.527Z,2.95
2023-02-23T01:56:14.371Z,3.53
2023-02-23T02:01:16.564Z,2.20
2023-02-23T02:06:21.637Z,2.30
2023-02-23T02:11:30.714Z,3.33
2023-02-23T02:16:47.867Z,2.13
2023-02-23T02:22:27.688Z,1.60
2023-02-23T02:28:04.297Z,3.15
2023-02-23T02:33:24.217Z,3.22
2023-02-23T02:38:34.527Z,1.60
2023-02-23T02:43:51.829Z,2.45
2023-02-23T02:49:21.410Z,2.28
2023-02-23T02:54:33.049Z,3.10
2023-02-23T03:00:05.355Z,1.40
2023-02-23T03:05:33.725Z,2.95
2023-02-23T03:11:00.235Z,2.15
2023-02-23T03:16:23.432Z,2.35
2023-02-23T03:21:50.163Z,0.95
2023-02-23T03:27:36.397Z,1.38
2023-02-23T03:33:08.295Z,1.92
2023-02-23T03:38:36.148Z,2.35
2023-02-23T03:44:19.819Z,2.67
2023-02-23T03:49:41.500Z,1.70
2023-02-23T03:55:14.766Z,1.75
2023-02-23T04:00:44.103Z,2.13
2023-02-23T04:06:06.367Z,2.05
2023-02-23T04:11:38.589Z,2.15
2023-02-23T04:16:42.673Z,2.47
2023-02-23T04:21:46.681Z,2.80
2023-02-23T04:26:48.200Z,1.77
2023-02-23T04:31:49.839Z,2.53
2023-02-23T04:36:51.565Z,1.92
2023-02-23T04:41:53.194Z,2.75
2023-02-23T04:46:56.501Z,2.25
2023-02-23T04:52:01.138Z,1.88
2023-02-23T04:57:02.634Z,1.25
2023-02-23T05:02:04.445Z,2.00
2023-02-23T05:07:06.089Z,1.90
2023-02-23T05:12:08.876Z,1.33
2023-02-23T05:17:10.611Z,2.45
2023-02-23T05:22:12.751Z,1.83
2023-02-23T05:27:14.571Z,2.22
2023-02-23T05:32:16.162Z,1.73
2023-02-23T05:37:18.058Z,2.70
2023-02-23T05:42:19.692Z,1.85
2023-02-23T05:47:21.228Z,2.42
2023-02-23T05:52:22.956Z,1.10
2023-02-23T05:57:24.492Z,0.43
2023-02-23T06:02:27.741Z,1.65
2023-02-23T06:07:29.596Z,3.28
2023-02-23T06:12:31.177Z,0.63
2023-02-23T06:17:33.848Z,0.93
2023-02-23T06:22:35.677Z,1.63
2023-02-23T06:27:37.172Z,1.95
2023-02-23T06:32:38.899Z,0.47
2023-02-23T06:37:44.077Z,0.88
2023-02-23T06:42:46.517Z,2.45
2023-02-23T06:47:48.287Z,1.42
2023-02-23T06:52:50.234Z,0.88
2023-02-23T06:57:54.358Z,0.80
2023-02-23T07:02:56.961Z,1.77
2023-02-23T07:07:58.481Z,1.67
2023-02-23T07:13:02.500Z,1.48
2023-02-23T07:18:04.102Z,1.48
2023-02-23T07:23:05.624Z,2.20
2023-02-23T07:28:07.149Z,2.60
2023-02-23T07:33:08.700Z,0.95
2023-02-23T07:38:10.196Z,1.48
2023-02-23T07:43:11.741Z,0.88
2023-02-23T07:48:13.669Z,1.88
2023-02-23T07:53:15.669Z,2.30
2023-02-23T07:58:17.364Z,0.95
2023-02-23T08:03:18.904Z,0.90
2023-02-23T08:08:20.836Z,1.17
2023-02-23T08:13:22.461Z,1.58
2023-02-23T08:18:24.147Z,2.40
2023-02-23T08:23:25.831Z,1.35
2023-02-23T08:28:28.912Z,1.35
2023-02-23T08:33:31.685Z,1.83
2023-02-23T08:38:33.335Z,1.67
2023-02-23T08:43:34.941Z,1.58
2023-02-23T08:48:36.541Z,1.63
2023-02-23T08:53:38.135Z,1.52
2023-02-23T08:58:39.710Z,1.58
2023-02-23T09:03:41.356Z,2.22
2023-02-23T09:08:43.074Z,3.15
2023-02-23T09:13:44.836Z,2.50
2023-02-23T09:18:46.529Z,1.60
2023-02-23T09:23:51.194Z,1.60
2023-02-23T09:28:52.817Z,1.17
2023-02-23T09:33:54.914Z,0.85
2023-02-23T09:38:57.840Z,1.25
2023-02-23T09:44:15.209Z,1.45
2023-02-23T09:49:25.425Z,2.00
2023-02-23T09:54:32.653Z,2.15
2023-02-23T09:59:36.051Z,0.75
2023-02-23T10:04:48.122Z,0.73
2023-02-23T10:10:23.017Z,2.83
2023-02-23T10:15:34.850Z,1.73
2023-02-23T10:21:14.069Z,1.40
2023-02-23T10:26:19.889Z,0.95
2023-02-23T10:31:27.837Z,1.08
2023-02-23T10:36:34.114Z,1.48
2023-02-23T10:41:37.232Z,1.67
2023-02-23T10:46:44.043Z,1.38
2023-02-23T10:51:45.644Z,1.55
2023-02-23T10:56:47.541Z,0.25
2023-02-23T11:02:01.537Z,1.75
2023-02-23T11:07:09.580Z,1.08
2023-02-23T11:12:28.515Z,1.52
2023-02-23T11:17:38.307Z,0.75
2023-02-23T11:22:42.469Z,1.48
2023-02-23T11:27:51.737Z,1.42
2023-02-23T11:32:56.450Z,0.40
2023-02-23T11:37:58.628Z,1.08
2023-02-23T11:43:08.082Z,1.15
2023-02-23T11:48:20.863Z,1.42
2023-02-23T11:53:36.496Z,1.25
2023-02-23T11:58:39.505Z,0.90
2023-02-23T12:03:48.178Z,1.88
2023-02-23T12:08:55.696Z,1.35
2023-02-23T12:14:03.723Z,1.05
2023-02-23T12:19:18.981Z,1.10
2023-02-23T12:24:42.566Z,0.60
2023-02-23T12:30:06.244Z,1.90
2023-02-23T12:35:17.896Z,2.25
2023-02-23T12:40:24.286Z,1.17
2023-02-23T12:45:33.873Z,0.73
2023-02-23T12:50:43.445Z,0.98
2023-02-23T12:55:57.706Z,1.10
2023-02-23T13:01:05.134Z,1.15
2023-02-23T13:06:35.385Z,0.95
2023-02-23T13:11:48.982Z,1.23
2023-02-23T13:16:54.969Z,1.10
2023-02-23T13:22:22.772Z,1.33
2023-02-23T13:27:34.346Z,1.38
2023-02-23T13:32:37.823Z,1.17
2023-02-23T13:37:43.267Z,0.95
2023-02-23T13:43:13.697Z,1.95
2023-02-23T13:48:41.761Z,2.10
2023-02-23T13:53:55.804Z,0.22
2023-02-23T13:59:03.528Z,2.15
2023-02-23T14:04:15.663Z,2.10
2023-02-23T14:09:24.354Z,1.60
2023-02-23T14:14:32.285Z,1.58
2023-02-23T14:19:40.926Z,1.35
2023-02-23T14:24:42.555Z,1.00
2023-02-23T14:30:05.183Z,0.85
2023-02-23T14:35:32.512Z,1.85
2023-02-23T14:40:39.943Z,1.27
2023-02-23T14:45:41.703Z,0.65
2023-02-23T14:50:43.526Z,1.33
2023-02-23T14:55:45.696Z,0.47
2023-02-23T15:00:49.110Z,1.60
2023-02-23T15:05:56.160Z,0.77
2023-02-23T15:11:11.699Z,1.13
2023-02-23T15:16:18.432Z,1.00
2023-02-23T15:21:23.570Z,0.73
2023-02-23T15:26:31.853Z,0.80
2023-02-23T15:31:34.883Z,0.65
2023-02-23T15:36:39.945Z,0.88
2023-02-23T15:41:44.067Z,0.30
2023-02-23T15:46:52.583Z,0.82
2023-02-23T15:52:03.148Z,0.73
2023-02-23T15:57:22.832Z,1.10
2023-02-23T16:02:25.291Z,0.47
2023-02-23T16:07:36.161Z,0.15
2023-02-23T16:12:39.646Z,0.47
2023-02-23T16:17:48.129Z,0.57
2023-02-23T16:22:55.019Z,0.57
2023-02-23T16:28:05.159Z,1.20
2023-02-23T16:38:25.409Z,0.20
2023-02-23T16:43:27.084Z,0.55
2023-02-23T16:48:30.327Z,0.82
2023-02-23T16:53:31.974Z,0.25
2023-02-23T16:58:36.111Z,0.88
2023-02-23T17:03:47.338Z,1.25
2023-02-23T17:08:58.103Z,1.13
2023-02-23T17:13:59.854Z,0.68
2023-02-23T17:19:02.027Z,1.10
2023-02-23T17:24:04.246Z,0.57
2023-02-23T17:29:05.996Z,1.17
2023-02-23T17:34:07.845Z,1.65
2023-02-23T17:39:10.361Z,0.73
2023-02-23T17:44:12.032Z,0.68
2023-02-23T17:49:16.175Z,0.35
2023-02-23T17:54:17.667Z,0.47
2023-02-23T17:59:19.474Z,0.32
2023-02-23T18:04:21.330Z,0.20
2023-02-23T18:09:25.220Z,0.82
2023-02-23T18:14:26.883Z,0.00
2023-02-23T18:19:28.574Z,0.05
2023-02-23T18:24:33.664Z,1.65
2023-02-23T18:29:36.349Z,0.00
2023-02-23T18:34:38.025Z,0.05
2023-02-23T18:39:39.530Z,0.05
2023-02-23T18:44:41.105Z,1.05
2023-02-23T18:49:42.724Z,1.80
2023-02-23T18:54:44.362Z,0.00
2023-02-23T18:59:46.802Z,0.00
2023-02-23T19:04:48.464Z,0.57
2023-02-23T19:09:51.621Z,0.10
2023-02-23T19:14:53.143Z,0.63
2023-02-23T19:19:57.764Z,0.00
2023-02-23T19:24:59.324Z,0.00
2023-02-23T19:30:01.105Z,0.88
2023-02-23T19:35:02.615Z,0.65
2023-02-23T19:40:04.639Z,0.00
2023-02-23T19:45:06.736Z,0.65
2023-02-23T19:50:13.181Z,0.57
2023-02-23T19:55:15.617Z,0.52
2023-02-23T20:00:18.282Z,0.90
2023-02-23T20:05:23.801Z,0.85
2023-02-23T20:10:29.140Z,0.10
2023-02-23T20:15:30.802Z,0.00
2023-02-23T20:20:33.767Z,0.10
2023-02-23T20:25:36.486Z,0.00
2023-02-23T20:30:38.140Z,0.13
2023-02-23T20:35:39.695Z,0.22
2023-02-23T20:40:44.720Z,0.00
2023-02-23T20:45:46.784Z,0.10
2023-02-23T20:50:54.033Z,0.00
2023-02-23T20:55:55.886Z,0.00
2023-02-23T21:00:57.714Z,0.10
2023-02-23T21:06:00.076Z,0.00
2023-02-23T21:11:05.255Z,0.20
2023-02-23T21:16:07.516Z,0.28
2023-02-23T21:21:10.149Z,0.10
2023-02-23T21:26:16.127Z,0.03
2023-02-23T21:31:20.814Z,0.00
2023-02-23T21:36:22.870Z,0.00
2023-02-23T21:41:24.571Z,0.57
2023-02-23T21:46:26.511Z,0.28
2023-02-23T21:51:28.201Z,0.00
2023-02-23T21:56:32.824Z,0.00
2023-02-23T22:01:37.728Z,0.00
2023-02-23T22:06:42.613Z,0.00
2023-02-23T22:11:47.266Z,0.00
2023-02-23T22:16:49.753Z,0.25
2023-02-23T22:21:51.544Z,0.03
2023-02-23T22:26:56.061Z,0.00
2023-02-23T22:31:57.718Z,0.25
2023-02-23T22:36:59.269Z,0.30
2023-02-23T22:48:11.534Z,0.20
2023-02-23T22:53:13.480Z,0.20
2023-02-23T22:58:17.681Z,0.50
2023-02-23T23:03:19.243Z,1.00
2023-02-23T23:08:20.762Z,0.22
2023-02-23T23:13:23.630Z,0.10
2023-02-23T23:18:28.238Z,0.00
2023-02-23T23:23:29.838Z,0.17
2023-02-23T23:28:31.388Z,0.00
2023-02-23T23:33:33.008Z,0.10
2023-02-23T23:38:35.650Z,0.05
2023-02-23T23:43:37.740Z,0.47
2023-02-23T23:48:39.419Z,4.38
2023-02-23T23:53:40.939Z,0.20
2023-02-23T23:58:42.439Z,0.10
